createdAt,value
2018-02-13T00:01:07.166Z,19.48
2018-02-13T00:02:15.997Z,20.14
2018-02-13T00:03:24.820Z,19.29
2018-02-13T00:04:33.797Z,19.95
2018-02-13T00:05:42.622Z,20.04
2018-02-13T00:06:51.449Z,20.23
2018-02-13T00:08:00.273Z,19.56
2018-02-13T00:09:09.100Z,19.57
2018-02-13T00:10:18.075Z,19.84
2018-02-13T00:11:26.901Z,19.37
2018-02-13T00:12:35.728Z,19.1
2018-02-13T00:13:44.824Z,19.57
2018-02-13T00:14:53.652Z,19.57
2018-02-13T00:16:02.475Z,19.29
2018-02-13T00:17:11.300Z,18.9
2018-02-13T00:18:20.124Z,19.46
2018-02-13T00:19:28.949Z,19.27
2018-02-13T00:20:37.773Z,19.48
2018-02-13T00:21:46.747Z,19.46
2018-02-13T00:22:55.573Z,19.38
2018-02-13T00:24:04.398Z,20.14
2018-02-13T00:25:13.472Z,19.27
2018-02-13T00:26:22.294Z,19.65
2018-02-13T00:27:31.721Z,19.84
2018-02-13T00:28:40.544Z,19.94
2018-02-13T00:29:49.371Z,19.46
2018-02-13T00:30:58.468Z,19.56
2018-02-13T00:32:07.289Z,20.51
2018-02-13T00:33:16.266Z,20.41
2018-02-13T00:34:25.089Z,19.84
2018-02-13T00:35:33.914Z,20.22
2018-02-13T00:36:42.738Z,20.41
2018-02-13T00:37:51.562Z,19.46
2018-02-13T00:39:00.486Z,19.56
2018-02-13T00:40:09.311Z,18.15
2018-02-13T00:41:18.134Z,19.65
2018-02-13T00:42:26.959Z,19.18
2018-02-13T00:43:35.786Z,19.46
2018-02-13T00:44:44.609Z,20.04
2018-02-13T00:45:53.434Z,20.61
2018-02-13T00:47:02.259Z,19.56
2018-02-13T00:48:11.080Z,19.94
2018-02-13T00:49:20.182Z,20.13
2018-02-13T00:50:29.006Z,20.41
2018-02-13T00:51:37.849Z,20.22
2018-02-13T00:52:46.657Z,19.84
2018-02-13T00:53:55.481Z,20.41
2018-02-13T00:55:04.577Z,20.51
2018-02-13T00:56:13.402Z,20.79
2018-02-13T00:57:22.227Z,20.22
2018-02-13T00:58:31.053Z,20.32
2018-02-13T00:59:39.877Z,20.41
2018-02-13T01:00:48.978Z,20.03
2018-02-13T01:01:57.802Z,20.13
2018-02-13T01:03:06.628Z,19.46
2018-02-13T01:04:15.455Z,20.13
2018-02-13T01:05:24.277Z,19.37
2018-02-13T01:06:33.102Z,19.37
2018-02-13T01:07:41.926Z,19.56
2018-02-13T01:08:50.751Z,19.37
2018-02-13T01:09:59.578Z,19.27
2018-02-13T01:11:08.680Z,19.84
2018-02-13T01:12:17.503Z,20.22
2018-02-13T01:13:26.504Z,20.32
2018-02-13T01:14:35.872Z,19.75
2018-02-13T01:15:44.696Z,20.13
2018-02-13T01:16:53.522Z,20.03
2018-02-13T01:18:02.620Z,19.94
2018-02-13T01:19:11.695Z,20.13
2018-02-13T01:20:20.518Z,20.13
2018-02-13T01:21:29.343Z,20.13
2018-02-13T01:22:38.442Z,20.13
2018-02-13T01:23:47.264Z,20.22
2018-02-13T01:24:56.188Z,20.41
2018-02-13T01:26:05.286Z,20.13
2018-02-13T01:27:14.109Z,20.03
2018-02-13T01:28:23.212Z,20.22
2018-02-13T01:29:32.038Z,19.75
2018-02-13T01:30:40.859Z,20.51
2018-02-13T01:31:49.686Z,20.32
2018-02-13T01:32:58.789Z,19.46
2018-02-13T01:34:07.613Z,19.84
2018-02-13T01:35:16.437Z,19.84
2018-02-13T01:36:25.313Z,19.94
2018-02-13T01:37:34.133Z,20.03
2018-02-13T01:38:42.955Z,19.65
2018-02-13T01:39:51.777Z,19.56
2018-02-13T01:41:00.603Z,20.22
2018-02-13T01:42:09.531Z,20.22
2018-02-13T01:43:18.359Z,20.22
2018-02-13T01:44:27.453Z,20.41
2018-02-13T01:45:36.279Z,20.03
2018-02-13T01:46:45.103Z,19.94
2018-02-13T01:47:54.038Z,20.22
2018-02-13T01:49:03.135Z,20.13
2018-02-13T01:50:11.959Z,19.94
2018-02-13T01:51:20.780Z,20.22
2018-02-13T01:52:29.603Z,19.84
2018-02-13T01:53:38.578Z,20.22
2018-02-13T01:54:47.399Z,19.94
2018-02-13T01:55:56.224Z,19.75
2018-02-13T01:57:05.049Z,20.22
2018-02-13T01:58:14.148Z,20.51
2018-02-13T01:59:23.121Z,20.51
2018-02-13T02:00:31.945Z,20.32
2018-02-13T02:01:40.771Z,19.94
2018-02-13T02:02:49.593Z,19.75
2018-02-13T02:03:58.417Z,20.41
2018-02-13T02:05:07.391Z,19.56
2018-02-13T02:06:16.216Z,20.22
2018-02-13T02:07:25.040Z,20.51
2018-02-13T02:08:33.864Z,20.6
2018-02-13T02:09:42.689Z,20.22
2018-02-13T02:10:51.615Z,20.22
2018-02-13T02:12:00.439Z,20.22
2018-02-13T02:13:09.808Z,20.6
2018-02-13T02:14:18.633Z,20.22
2018-02-13T02:15:27.455Z,20.7
2018-02-13T02:16:36.282Z,20.79
2018-02-13T02:17:45.106Z,20.13
2018-02-13T02:18:53.929Z,20.22
2018-02-13T02:20:02.755Z,20.51
2018-02-13T02:21:11.852Z,20.32
2018-02-13T02:22:20.977Z,20.6
2018-02-13T02:23:29.801Z,20.41
2018-02-13T02:24:38.623Z,20.41
2018-02-13T02:25:47.446Z,21.08
2018-02-13T02:26:56.272Z,20.7
2018-02-13T02:28:05.252Z,20.22
2018-02-13T02:29:14.073Z,20.6
2018-02-13T02:30:22.898Z,20.7
2018-02-13T02:31:31.723Z,20.89
2018-02-13T02:32:40.545Z,20.7
2018-02-13T02:33:49.419Z,20.79
2018-02-13T02:34:58.243Z,20.13
2018-02-13T02:36:07.065Z,20.22
2018-02-13T02:37:15.899Z,20.22
2018-02-13T02:38:24.716Z,20.41
2018-02-13T02:39:33.642Z,20.32
2018-02-13T02:40:42.741Z,20.41
2018-02-13T02:41:51.566Z,19.84
2018-02-13T02:43:00.398Z,20.51
2018-02-13T02:44:09.220Z,20.51
2018-02-13T02:45:18.138Z,20.7
2018-02-13T02:46:27.239Z,20.32
2018-02-13T02:47:36.062Z,20.51
2018-02-13T02:48:45.160Z,20.41
2018-02-13T02:49:53.983Z,20.13
2018-02-13T02:51:03.137Z,20.32
2018-02-13T02:52:12.240Z,20.51
2018-02-13T02:53:21.061Z,20.22
2018-02-13T02:54:29.884Z,20.89
2018-02-13T02:55:38.708Z,20.41
2018-02-13T02:56:47.832Z,20.51
2018-02-13T02:57:56.656Z,20.41
2018-02-13T02:59:05.480Z,20.32
2018-02-13T03:00:14.303Z,20.6
2018-02-13T03:01:23.131Z,20.6
2018-02-13T03:02:32.255Z,20.41
2018-02-13T03:03:41.078Z,20.03
2018-02-13T03:04:50.174Z,20.41
2018-02-13T03:05:59.000Z,20.22
2018-02-13T03:07:07.823Z,20.13
2018-02-13T03:08:16.747Z,20.41
2018-02-13T03:09:25.571Z,20.13
2018-02-13T03:10:34.394Z,20.41
2018-02-13T03:11:43.218Z,20.13
2018-02-13T03:12:52.042Z,20.89
2018-02-13T03:14:01.169Z,20.89
2018-02-13T03:15:09.990Z,20.98
2018-02-13T03:16:18.815Z,20.6
2018-02-13T03:17:27.637Z,20.7
2018-02-13T03:18:36.461Z,20.6
2018-02-13T03:19:45.286Z,19.84
2018-02-13T03:20:54.109Z,20.22
2018-02-13T03:22:02.933Z,20.13
2018-02-13T03:23:11.758Z,20.13
2018-02-13T03:24:20.581Z,20.7
2018-02-13T03:25:29.458Z,20.13
2018-02-13T03:26:38.283Z,20.41
2018-02-13T03:27:47.106Z,20.51
2018-02-13T03:28:55.930Z,20.41
2018-02-13T03:30:04.804Z,20.22
2018-02-13T03:31:13.780Z,20.32
2018-02-13T03:32:22.605Z,20.79
2018-02-13T03:33:31.427Z,20.6
2018-02-13T03:34:40.251Z,20.13
2018-02-13T03:35:49.074Z,20.41
2018-02-13T03:36:57.898Z,20.7
2018-02-13T03:38:06.995Z,20.7
2018-02-13T03:39:15.820Z,20.6
2018-02-13T03:40:24.642Z,20.7
2018-02-13T03:41:33.466Z,20.51
2018-02-13T03:42:42.291Z,20.98
2018-02-13T03:43:51.114Z,20.89
2018-02-13T03:44:59.938Z,20.89
2018-02-13T03:46:08.762Z,20.7
2018-02-13T03:47:17.586Z,21.08
2018-02-13T03:48:26.408Z,21.08
2018-02-13T03:49:35.239Z,21.08
2018-02-13T03:50:44.058Z,20.89
2018-02-13T03:51:52.884Z,20.98
2018-02-13T03:53:01.721Z,21.45
2018-02-13T03:54:10.746Z,20.98
2018-02-13T03:55:19.845Z,21.55
2018-02-13T03:56:28.668Z,20.89
2018-02-13T03:57:37.497Z,21.08
2018-02-13T03:58:46.320Z,21.92
2018-02-13T03:59:55.244Z,21.83
2018-02-13T04:01:04.066Z,20.98
2018-02-13T04:02:12.890Z,21.45
2018-02-13T04:03:21.714Z,22.2
2018-02-13T04:04:30.542Z,22.11
2018-02-13T04:05:39.765Z,21.64
2018-02-13T04:06:48.587Z,22.3
2018-02-13T04:07:57.409Z,21.36
2018-02-13T04:09:06.232Z,21.83
2018-02-13T04:10:15.056Z,22.3
2018-02-13T04:11:24.030Z,22.2
2018-02-13T04:12:32.857Z,22.49
2018-02-13T04:13:41.676Z,21.83
2018-02-13T04:14:50.500Z,22.11
2018-02-13T04:15:59.323Z,22.3
2018-02-13T04:17:08.146Z,21.55
2018-02-13T04:18:17.245Z,21.64
2018-02-13T04:19:26.351Z,21.64
2018-02-13T04:20:35.174Z,21.83
2018-02-13T04:21:43.999Z,22.3
2018-02-13T04:22:53.246Z,22.58
2018-02-13T04:24:02.070Z,22.68
2018-02-13T04:25:10.894Z,22.3
2018-02-13T04:26:19.991Z,22.58
2018-02-13T04:27:28.816Z,23.06
2018-02-13T04:28:37.642Z,23.06
2018-02-13T04:29:46.467Z,23.34
2018-02-13T04:30:55.289Z,23.15
2018-02-13T04:32:04.389Z,23.44
2018-02-13T04:33:13.213Z,23.53
2018-02-13T04:34:22.038Z,23.72
2018-02-13T04:35:30.859Z,23.82
2018-02-13T04:36:39.686Z,23.72
2018-02-13T04:37:48.508Z,23.91
2018-02-13T04:38:57.333Z,23.82
2018-02-13T04:40:06.308Z,23.72
2018-02-13T04:41:15.132Z,23.63
2018-02-13T04:42:23.954Z,23.72
2018-02-13T04:43:32.775Z,24.29
2018-02-13T04:44:41.598Z,24.1
2018-02-13T04:45:50.421Z,24.19
2018-02-13T04:46:59.244Z,24.1
2018-02-13T04:48:08.067Z,24.38
2018-02-13T04:49:16.891Z,24.19
2018-02-13T04:50:25.716Z,23.91
2018-02-13T04:51:34.641Z,24.1
2018-02-13T04:52:43.462Z,24.48
2018-02-13T04:53:52.285Z,24.48
2018-02-13T04:55:01.109Z,24.66
2018-02-13T04:56:09.932Z,24.19
2018-02-13T04:57:18.856Z,23.91
2018-02-13T04:58:27.679Z,24.1
2018-02-13T04:59:36.503Z,24.1
2018-02-13T05:00:45.335Z,24.1
2018-02-13T05:01:54.158Z,23.63
2018-02-13T05:03:03.133Z,23.9
2018-02-13T05:04:11.957Z,23.82
2018-02-13T05:05:21.061Z,23.53
2018-02-13T05:06:30.157Z,23.82
2018-02-13T05:07:38.982Z,23.05
2018-02-13T05:08:47.956Z,23.82
2018-02-13T05:09:56.778Z,24.19
2018-02-13T05:11:05.603Z,24.01
2018-02-13T05:12:14.427Z,23.61
2018-02-13T05:13:23.254Z,23.53
2018-02-13T05:14:32.552Z,24.38
2018-02-13T05:15:41.378Z,23.82
2018-02-13T05:16:50.202Z,24.55
2018-02-13T05:17:59.029Z,24.57
2018-02-13T05:19:07.853Z,23.82
2018-02-13T05:20:16.825Z,25.04
2018-02-13T05:21:25.922Z,24.48
2018-02-13T05:22:34.752Z,24.01
2018-02-13T05:23:43.846Z,24.66
2018-02-13T05:24:52.670Z,24.29
2018-02-13T05:26:01.694Z,24.29
2018-02-13T05:27:10.518Z,24.29
2018-02-13T05:28:19.340Z,24.95
2018-02-13T05:29:28.165Z,25.42
2018-02-13T05:30:36.992Z,25.7
2018-02-13T05:31:45.815Z,25.61
2018-02-13T05:32:54.636Z,24.95
2018-02-13T05:34:03.462Z,25.99
2018-02-13T05:35:12.287Z,25.89
2018-02-13T05:36:21.111Z,26.46
2018-02-13T05:37:30.236Z,26.08
2018-02-13T05:38:39.058Z,25.42
2018-02-13T05:39:47.880Z,25.89
2018-02-13T05:40:56.976Z,25.89
2018-02-13T05:42:05.800Z,26.37
2018-02-13T05:43:14.621Z,26.18
2018-02-13T05:44:23.444Z,26.65
2018-02-13T05:45:32.269Z,26.17
2018-02-13T05:46:41.090Z,26.56
2018-02-13T05:47:49.914Z,26.37
2018-02-13T05:48:58.887Z,25.8
2018-02-13T05:50:07.710Z,25.41
2018-02-13T05:51:16.533Z,25.89
2018-02-13T05:52:25.354Z,25.88
2018-02-13T05:53:34.178Z,25.7
2018-02-13T05:54:43.001Z,25.79
2018-02-13T05:55:52.100Z,25.42
2018-02-13T05:57:01.198Z,25.31
2018-02-13T05:58:10.024Z,25.42
2018-02-13T05:59:19.130Z,25.42
2018-02-13T06:00:28.108Z,26.08
2018-02-13T06:01:36.933Z,25.51
2018-02-13T06:02:45.759Z,25.51
2018-02-13T06:03:54.581Z,25.41
2018-02-13T06:05:03.683Z,25.79
2018-02-13T06:06:12.607Z,25.42
2018-02-13T06:07:21.430Z,25.51
2018-02-13T06:08:30.253Z,25.04
2018-02-13T06:09:39.074Z,25.32
2018-02-13T06:10:47.899Z,25.31
2018-02-13T06:11:56.828Z,25.61
2018-02-13T06:13:05.970Z,25.41
2018-02-13T06:14:14.794Z,25.42
2018-02-13T06:15:23.615Z,26.27
2018-02-13T06:16:32.438Z,27.03
2018-02-13T06:17:41.412Z,27.31
2018-02-13T06:18:50.236Z,26.84
2018-02-13T06:19:59.058Z,26.37
2018-02-13T06:21:08.159Z,26.84
2018-02-13T06:22:16.981Z,26.73
2018-02-13T06:23:25.904Z,27.03
2018-02-13T06:24:34.727Z,26.64
2018-02-13T06:25:43.553Z,26.82
2018-02-13T06:26:52.650Z,26.37
2018-02-13T06:28:01.475Z,26.56
2018-02-13T06:29:10.349Z,26.84
2018-02-13T06:30:19.172Z,27.01
2018-02-13T06:31:27.997Z,27.03
2018-02-13T06:32:36.822Z,25.88
2018-02-13T06:33:45.644Z,26.07
2018-02-13T06:34:54.743Z,26.56
2018-02-13T06:36:03.571Z,25.5
2018-02-13T06:37:12.393Z,25.61
2018-02-13T06:38:21.216Z,25.88
2018-02-13T06:39:30.042Z,26.18
2018-02-13T06:40:38.904Z,26.56
2018-02-13T06:41:47.688Z,27.03
2018-02-13T06:42:56.512Z,26.35
2018-02-13T06:44:05.334Z,26.54
2018-02-13T06:45:14.204Z,25.8
2018-02-13T06:46:22.981Z,25.61
2018-02-13T06:47:31.805Z,26.64
2018-02-13T06:48:40.628Z,25.88
2018-02-13T06:49:49.452Z,25.88
2018-02-13T06:50:58.553Z,25.5
2018-02-13T06:52:07.372Z,25.8
2018-02-13T06:53:16.196Z,25.88
2018-02-13T06:54:25.019Z,26.18
2018-02-13T06:55:33.849Z,25.89
2018-02-13T06:56:42.666Z,25.7
2018-02-13T06:57:51.488Z,25.5
2018-02-13T06:59:00.312Z,25.8
2018-02-13T07:00:09.236Z,25.79
2018-02-13T07:01:18.059Z,25.79
2018-02-13T07:02:26.882Z,25.41
2018-02-13T07:03:35.705Z,25.41
2018-02-13T07:04:44.804Z,25.5
2018-02-13T07:05:53.627Z,25.5
2018-02-13T07:07:02.453Z,25.41
2018-02-13T07:08:11.277Z,25.03
2018-02-13T07:09:20.101Z,25.22
2018-02-13T07:10:28.922Z,25.88
2018-02-13T07:11:37.745Z,25.7
2018-02-13T07:12:46.569Z,25.51
2018-02-13T07:13:55.392Z,25.51
2018-02-13T07:15:04.217Z,24.95
2018-02-13T07:16:13.041Z,25.61
2018-02-13T07:17:21.967Z,25.32
2018-02-13T07:18:30.791Z,25.5
2018-02-13T07:19:39.616Z,25.98
2018-02-13T07:20:48.711Z,25.88
2018-02-13T07:21:57.536Z,26.46
2018-02-13T07:23:06.462Z,25.89
2018-02-13T07:24:15.293Z,25.89
2018-02-13T07:25:24.116Z,25.8
2018-02-13T07:26:32.939Z,25.99
2018-02-13T07:27:42.040Z,26.56
2018-02-13T07:28:50.959Z,26.65
2018-02-13T07:30:00.067Z,26.27
2018-02-13T07:31:08.886Z,26.84
2018-02-13T07:32:17.706Z,26.75
2018-02-13T07:33:26.530Z,26.93
2018-02-13T07:34:35.554Z,27.12
2018-02-13T07:35:44.377Z,27.12
2018-02-13T07:36:53.199Z,27.31
2018-02-13T07:38:02.021Z,27.31
2018-02-13T07:39:10.847Z,27.03
2018-02-13T07:40:19.818Z,27.22
2018-02-13T07:41:28.641Z,27.87
2018-02-13T07:42:37.462Z,26.93
2018-02-13T07:43:46.286Z,28.16
2018-02-13T07:44:55.113Z,27.78
2018-02-13T07:46:04.386Z,28.54
2018-02-13T07:47:13.487Z,28.92
2018-02-13T07:48:22.309Z,29.01
2018-02-13T07:49:31.136Z,29.96
2018-02-13T07:50:39.961Z,29.3
2018-02-13T07:51:48.787Z,30.71
2018-02-13T07:52:57.883Z,31.66
2018-02-13T07:54:06.707Z,33.07
2018-02-13T07:55:15.531Z,33.92
2018-02-13T07:56:24.353Z,34.4
2018-02-13T07:57:33.479Z,34.02
2018-02-13T07:58:42.306Z,35.63
2018-02-13T07:59:51.404Z,34.3
2018-02-13T08:01:00.230Z,34.21
2018-02-13T08:02:09.053Z,35.63
2018-02-13T08:03:17.876Z,35.25
2018-02-13T08:04:26.701Z,36.47
2018-02-13T08:05:35.524Z,37.14
2018-02-13T08:06:44.346Z,37.04
2018-02-13T08:07:53.173Z,37.42
2018-02-13T08:09:02.098Z,36.38
2018-02-13T08:10:10.925Z,37.61
2018-02-13T08:11:19.750Z,37.14
2018-02-13T08:12:28.572Z,36
2018-02-13T08:13:37.395Z,36.76
2018-02-13T08:14:46.219Z,36.66
2018-02-13T08:15:55.044Z,37.61
2018-02-13T08:17:03.870Z,36.85
2018-02-13T08:18:12.691Z,36.76
2018-02-13T08:19:21.515Z,36.76
2018-02-13T08:20:30.441Z,36
2018-02-13T08:21:39.262Z,37.14
2018-02-13T08:22:48.088Z,37.9
2018-02-13T08:23:56.918Z,36.85
2018-02-13T08:25:05.742Z,36
2018-02-13T08:26:14.717Z,36.4
2018-02-13T08:27:23.818Z,37.52
2018-02-13T08:28:32.641Z,37.52
2018-02-13T08:29:41.464Z,38.39
2018-02-13T08:30:50.286Z,37.73
2018-02-13T08:31:59.533Z,39.33
2018-02-13T08:33:08.635Z,38.67
2018-02-13T08:34:17.463Z,39.33
2018-02-13T08:35:26.286Z,38.2
2018-02-13T08:36:35.168Z,40.19
2018-02-13T08:37:44.242Z,40.66
2018-02-13T08:38:53.068Z,40.47
2018-02-13T08:40:01.892Z,42.17
2018-02-13T08:41:10.717Z,42.45
2018-02-13T08:42:19.813Z,41.13
2018-02-13T08:43:28.792Z,41.51
2018-02-13T08:44:37.615Z,41.03
2018-02-13T08:45:46.440Z,42.08
2018-02-13T08:46:55.542Z,42.08
2018-02-13T08:48:04.369Z,42.36
2018-02-13T08:49:13.244Z,43.87
2018-02-13T08:50:22.348Z,44.15
2018-02-13T08:51:31.172Z,45.48
2018-02-13T08:52:39.997Z,44.82
2018-02-13T08:53:48.823Z,45.2
2018-02-13T08:54:57.747Z,40.75
2018-02-13T08:56:06.623Z,43.49
2018-02-13T08:57:15.447Z,44.15
2018-02-13T08:58:24.272Z,45.95
2018-02-13T08:59:33.097Z,48.22
2018-02-13T09:00:42.298Z,49.73
2018-02-13T09:01:51.122Z,48.03
2018-02-13T09:02:59.948Z,47.94
2018-02-13T09:04:08.773Z,48.13
2018-02-13T09:05:17.598Z,48.79
2018-02-13T09:06:26.423Z,48.22
2018-02-13T09:07:35.247Z,50.59
2018-02-13T09:08:44.073Z,49.45
2018-02-13T09:09:52.898Z,51.25
2018-02-13T09:11:01.722Z,52.67
2018-02-13T09:12:10.548Z,52.38
2018-02-13T09:13:19.373Z,50.78
2018-02-13T09:14:28.198Z,52.57
2018-02-13T09:15:37.025Z,50.61
2018-02-13T09:16:45.848Z,53.07
2018-02-13T09:17:54.824Z,52.98
2018-02-13T09:19:03.650Z,52.79
2018-02-13T09:20:12.473Z,52.22
2018-02-13T09:21:21.298Z,51.09
2018-02-13T09:22:30.125Z,52.79
2018-02-13T09:23:39.100Z,52.12
2018-02-13T09:24:47.924Z,52.41
2018-02-13T09:25:56.751Z,52.41
2018-02-13T09:27:05.848Z,53.17
2018-02-13T09:28:14.672Z,53.92
2018-02-13T09:29:24.090Z,52.88
2018-02-13T09:30:33.191Z,53.92
2018-02-13T09:31:42.015Z,53.92
2018-02-13T09:32:50.841Z,55.63
2018-02-13T09:33:59.667Z,58.28
2018-02-13T09:35:08.871Z,56.38
2018-02-13T09:36:17.706Z,56.67
2018-02-13T09:37:26.533Z,57.33
2018-02-13T09:38:35.360Z,56.67
2018-02-13T09:39:44.187Z,56.29
2018-02-13T09:40:53.161Z,55.34
2018-02-13T09:42:01.987Z,53.55
2018-02-13T09:43:10.812Z,53.45
2018-02-13T09:44:19.637Z,53.74
2018-02-13T09:45:28.464Z,54.02
2018-02-13T09:46:37.391Z,55.34
2018-02-13T09:47:46.217Z,54.77
2018-02-13T09:48:55.319Z,56.2
2018-02-13T09:50:04.145Z,57.14
2018-02-13T09:51:12.972Z,57.33
2018-02-13T09:52:21.949Z,58.56
2018-02-13T09:53:31.048Z,57.99
2018-02-13T09:54:39.873Z,55.65
2018-02-13T09:55:48.703Z,55.46
2018-02-13T09:56:57.531Z,55.72
2018-02-13T09:58:06.456Z,58.09
2018-02-13T09:59:15.284Z,56.79
2018-02-13T10:00:24.112Z,58.97
2018-02-13T10:01:32.937Z,60
2018-02-13T10:02:41.764Z,60.48
2018-02-13T10:03:50.790Z,60.29
2018-02-13T10:04:59.617Z,56.88
2018-02-13T10:06:08.443Z,59.16
2018-02-13T10:07:17.270Z,61.43
2018-02-13T10:08:26.384Z,61.24
2018-02-13T10:09:35.591Z,61.8
2018-02-13T10:10:44.418Z,60.86
2018-02-13T10:11:53.247Z,60.67
2018-02-13T10:13:02.070Z,61.71
2018-02-13T10:14:10.897Z,61.61
2018-02-13T10:15:19.826Z,60.1
2018-02-13T10:16:28.653Z,62.47
2018-02-13T10:17:37.481Z,61.9
2018-02-13T10:18:46.311Z,62.37
2018-02-13T10:19:55.133Z,61.43
2018-02-13T10:21:04.072Z,63.7
2018-02-13T10:22:12.899Z,63.04
2018-02-13T10:23:21.725Z,62.18
2018-02-13T10:24:30.552Z,62.66
2018-02-13T10:25:39.581Z,63.04
2018-02-13T10:26:48.558Z,62.28
2018-02-13T10:27:57.384Z,63.7
2018-02-13T10:29:06.535Z,65.12
2018-02-13T10:30:15.359Z,65.78
2018-02-13T10:31:24.184Z,65.91
2018-02-13T10:32:33.114Z,63.16
2018-02-13T10:33:42.214Z,66.38
2018-02-13T10:34:51.043Z,67.14
2018-02-13T10:35:59.870Z,66.86
2018-02-13T10:37:08.699Z,67.52
2018-02-13T10:38:17.627Z,67.43
2018-02-13T10:39:26.456Z,67.05
2018-02-13T10:40:35.280Z,67.8
2018-02-13T10:41:44.108Z,69.13
2018-02-13T10:42:52.937Z,67.61
2018-02-13T10:44:01.763Z,68.37
2018-02-13T10:45:10.590Z,68.37
2018-02-13T10:46:19.418Z,68.18
2018-02-13T10:47:28.518Z,68.46
2018-02-13T10:48:37.347Z,70.55
2018-02-13T10:49:46.325Z,70.07
2018-02-13T10:50:55.151Z,69.98
2018-02-13T10:52:03.979Z,71.02
2018-02-13T10:53:13.083Z,72.25
2018-02-13T10:54:22.187Z,70.17
2018-02-13T10:55:31.206Z,71.78
2018-02-13T10:56:39.990Z,71.12
2018-02-13T10:57:48.818Z,71.97
2018-02-13T10:58:57.648Z,71.12
2018-02-13T11:00:06.476Z,70.64
2018-02-13T11:01:15.400Z,71.81
2018-02-13T11:02:24.226Z,72
2018-02-13T11:03:33.053Z,71.72
2018-02-13T11:04:41.881Z,72.67
2018-02-13T11:05:50.708Z,71.44
2018-02-13T11:06:59.535Z,72.19
2018-02-13T11:08:08.370Z,70.01
2018-02-13T11:09:17.200Z,72.67
2018-02-13T11:10:26.030Z,72.48
2018-02-13T11:11:34.858Z,71.15
2018-02-13T11:12:43.986Z,72.38
2018-02-13T11:13:53.087Z,73.43
2018-02-13T11:15:01.916Z,72.67
2018-02-13T11:16:11.019Z,72.57
2018-02-13T11:17:19.849Z,72.77
2018-02-13T11:18:28.834Z,73.61
2018-02-13T11:19:37.656Z,74.66
2018-02-13T11:20:46.486Z,76.17
2018-02-13T11:21:55.311Z,74.95
2018-02-13T11:23:04.140Z,76.55
2018-02-13T11:24:13.018Z,75.98
2018-02-13T11:25:21.846Z,75.79
2018-02-13T11:26:30.722Z,75.13
2018-02-13T11:27:39.552Z,74.6
2018-02-13T11:28:48.654Z,75.36
2018-02-13T11:29:57.581Z,76.87
2018-02-13T11:31:06.410Z,76.21
2018-02-13T11:32:15.239Z,76.4
2018-02-13T11:33:24.066Z,78.11
2018-02-13T11:34:32.896Z,78.96
2018-02-13T11:35:41.828Z,78.02
2018-02-13T11:36:50.656Z,77.25
2018-02-13T11:37:59.486Z,77.83
2018-02-13T11:39:08.314Z,79.15
2018-02-13T11:40:17.143Z,78.49
2018-02-13T11:41:26.072Z,79.34
2018-02-13T11:42:34.901Z,76.78
2018-02-13T11:43:43.732Z,78.87
2018-02-13T11:44:52.562Z,77.73
2018-02-13T11:46:01.392Z,76.5
2018-02-13T11:47:10.472Z,78.02
2018-02-13T11:48:19.578Z,79.72
2018-02-13T11:49:28.408Z,78.77
2018-02-13T11:50:37.514Z,80.1
2018-02-13T11:51:46.339Z,78.87
2018-02-13T11:52:55.223Z,79.34
2018-02-13T11:54:04.323Z,78.96
2018-02-13T11:55:13.428Z,79.19
2018-02-13T11:56:22.259Z,76.25
2018-02-13T11:57:31.088Z,82.23
2018-02-13T11:58:39.967Z,80.8
2018-02-13T11:59:48.796Z,79.82
2018-02-13T12:00:57.630Z,81.33
2018-02-13T12:02:06.454Z,80.71
2018-02-13T12:03:15.557Z,80.99
2018-02-13T12:04:24.641Z,77.29
2018-02-13T12:05:33.740Z,81.85
2018-02-13T12:06:42.570Z,82.42
2018-02-13T12:07:51.398Z,80.52
2018-02-13T12:09:00.226Z,80.14
2018-02-13T12:10:09.106Z,83.08
2018-02-13T12:11:17.938Z,81.66
2018-02-13T12:12:26.764Z,82.42
2018-02-13T12:13:35.592Z,83.17
2018-02-13T12:14:44.421Z,83.27
2018-02-13T12:15:53.351Z,83.17
2018-02-13T12:17:02.456Z,84.03
2018-02-13T12:18:11.287Z,83.94
2018-02-13T12:19:20.116Z,84.88
2018-02-13T12:20:28.947Z,84.31
2018-02-13T12:21:37.775Z,84.69
2018-02-13T12:22:46.883Z,84.59
2018-02-13T12:23:55.984Z,83.27
2018-02-13T12:25:04.816Z,84.59
2018-02-13T12:26:13.646Z,84.69
2018-02-13T12:27:22.743Z,84.41
2018-02-13T12:28:31.563Z,84.78
2018-02-13T12:29:40.392Z,84.12
2018-02-13T12:30:49.219Z,85.17
2018-02-13T12:31:58.050Z,85.45
2018-02-13T12:33:06.983Z,86.78
2018-02-13T12:34:15.815Z,84.5
2018-02-13T12:35:24.653Z,85.93
2018-02-13T12:36:33.475Z,85.45
2018-02-13T12:37:42.305Z,85.83
2018-02-13T12:38:51.283Z,86.07
2018-02-13T12:40:00.112Z,87.2
2018-02-13T12:41:08.941Z,86.11
2018-02-13T12:42:17.772Z,86.25
2018-02-13T12:43:26.880Z,86.72
2018-02-13T12:44:35.963Z,86.63
2018-02-13T12:45:44.797Z,86.63
2018-02-13T12:46:53.626Z,85.02
2018-02-13T12:48:02.456Z,87.49
2018-02-13T12:49:11.286Z,89.2
2018-02-13T12:50:20.555Z,88.24
2018-02-13T12:51:29.385Z,88.24
2018-02-13T12:52:38.213Z,88.24
2018-02-13T12:53:47.044Z,87.87
2018-02-13T12:54:56.147Z,88.24
2018-02-13T12:56:05.128Z,88.53
2018-02-13T12:57:13.959Z,88.91
2018-02-13T12:58:22.789Z,89.2
2018-02-13T12:59:31.619Z,90.71
2018-02-13T13:00:40.725Z,89.48
2018-02-13T13:01:49.830Z,88.43
2018-02-13T13:02:58.662Z,89.1
2018-02-13T13:04:07.494Z,89.58
2018-02-13T13:05:16.325Z,90.52
2018-02-13T13:06:25.432Z,89.86
2018-02-13T13:07:34.591Z,89.67
2018-02-13T13:08:43.422Z,90.14
2018-02-13T13:09:52.253Z,89.48
2018-02-13T13:11:01.084Z,88.81
2018-02-13T13:12:09.919Z,90.81
2018-02-13T13:13:18.800Z,85.59
2018-02-13T13:14:27.632Z,90.05
2018-02-13T13:15:36.464Z,89.76
2018-02-13T13:16:45.294Z,89.86
2018-02-13T13:17:54.399Z,90.14
2018-02-13T13:19:03.281Z,90.43
2018-02-13T13:20:12.168Z,90.24
2018-02-13T13:21:20.999Z,90.81
2018-02-13T13:22:29.831Z,90.62
2018-02-13T13:23:38.665Z,90.81
2018-02-13T13:24:47.501Z,90.24
2018-02-13T13:25:56.330Z,91.38
2018-02-13T13:27:05.162Z,90.9
2018-02-13T13:28:13.995Z,91.56
2018-02-13T13:29:22.827Z,91.42
2018-02-13T13:30:31.713Z,91.56
2018-02-13T13:31:40.548Z,91.52
2018-02-13T13:32:49.374Z,91.61
2018-02-13T13:33:58.207Z,88.86
2018-02-13T13:35:07.042Z,92.28
2018-02-13T13:36:16.249Z,91.42
2018-02-13T13:37:25.082Z,92.09
2018-02-13T13:38:33.913Z,92.09
2018-02-13T13:39:42.750Z,91.52
2018-02-13T13:40:51.577Z,92.18
2018-02-13T13:42:00.414Z,93.32
2018-02-13T13:43:09.242Z,92.09
2018-02-13T13:44:18.075Z,91.52
2018-02-13T13:45:26.909Z,93.23
2018-02-13T13:46:35.743Z,92.28
2018-02-13T13:47:44.731Z,92.37
2018-02-13T13:48:53.564Z,92.09
2018-02-13T13:50:02.400Z,91.99
2018-02-13T13:51:11.233Z,90.19
2018-02-13T13:52:20.065Z,92.28
2018-02-13T13:53:28.948Z,92.47
2018-02-13T13:54:37.781Z,92.18
2018-02-13T13:55:46.614Z,92.66
2018-02-13T13:56:55.449Z,93.32
2018-02-13T13:58:04.284Z,94.18
2018-02-13T13:59:13.125Z,93.13
2018-02-13T14:00:21.964Z,92.28
2018-02-13T14:01:30.798Z,92.56
2018-02-13T14:02:39.631Z,93.04
2018-02-13T14:03:48.465Z,92.56
2018-02-13T14:04:57.450Z,92.66
2018-02-13T14:06:06.334Z,93.04
2018-02-13T14:07:15.169Z,93.13
2018-02-13T14:08:24.002Z,92.51
2018-02-13T14:09:32.837Z,94.03
2018-02-13T14:10:41.771Z,94.03
2018-02-13T14:11:50.880Z,93.08
2018-02-13T14:12:59.747Z,93.08
2018-02-13T14:14:08.544Z,93.37
2018-02-13T14:15:17.379Z,93.27
2018-02-13T14:16:26.262Z,93.56
2018-02-13T14:17:35.369Z,94.23
2018-02-13T14:18:44.202Z,93.18
2018-02-13T14:19:53.036Z,93.37
2018-02-13T14:21:01.869Z,93.37
2018-02-13T14:22:10.804Z,93.46
2018-02-13T14:23:19.637Z,93.75
2018-02-13T14:24:28.474Z,93.6
2018-02-13T14:25:37.852Z,93.84
2018-02-13T14:26:46.687Z,93.75
2018-02-13T14:27:55.671Z,93.99
2018-02-13T14:29:04.506Z,93.41
2018-02-13T14:30:13.341Z,93.6
2018-02-13T14:31:22.183Z,93.6
2018-02-13T14:32:31.013Z,93.51
2018-02-13T14:33:39.898Z,93.79
2018-02-13T14:34:48.734Z,93.6
2018-02-13T14:35:57.571Z,93.51
2018-02-13T14:37:06.404Z,93.94
2018-02-13T14:38:15.238Z,94.08
2018-02-13T14:39:24.649Z,93.6
2018-02-13T14:40:33.489Z,93.89
2018-02-13T14:41:42.325Z,93.37
2018-02-13T14:42:51.163Z,92.41
2018-02-13T14:43:59.998Z,93.27
2018-02-13T14:45:08.933Z,92.46
2018-02-13T14:46:17.775Z,91.89
2018-02-13T14:47:26.620Z,92.18
2018-02-13T14:48:35.728Z,92.94
2018-02-13T14:49:44.567Z,93.6
2018-02-13T14:50:53.553Z,93.32